Time;durP1;ratioP1;P1;durP2;ratioP2;P2;SDS_P1;SDS_P2;PMS_P1;PMS_P2;Temp;Humidity;BMP_temperature;BMP_pressure;BME280_temperature;BME280_humidity;BME280_pressure;Samples;Min_cycle;Max_cycle;Signal;HPM_P1;HPM_P2
2023/01/06 00:01:12;;;;;;;21.85;5.63;;;10.30;99.90;;;;;;4212045;28;20084;-86
2023/01/06 00:03:13;;;;;;;22.25;5.82;;;10.30;99.90;;;;;;4229145;28;20051;-86
2023/01/06 00:05:14;;;;;;;26.40;6.00;;;10.40;99.90;;;;;;4229002;28;20534;-86
2023/01/06 00:07:14;;;;;;;33.20;6.82;;;10.20;99.90;;;;;;4228688;28;20088;-86
2023/01/06 00:09:15;;;;;;;23.45;5.78;;;10.40;99.90;;;;;;4228534;28;20140;-86
2023/01/06 00:11:16;;;;;;;23.95;6.13;;;10.30;99.90;;;;;;4236495;27;20399;-85
2023/01/06 00:13:17;;;;;;;19.80;6.50;;;10.20;99.90;;;;;;4268377;27;20110;-85
2023/01/06 00:15:19;;;;;;;29.33;6.10;;;10.20;99.90;;;;;;4268515;27;20054;-86
2023/01/06 00:17:21;;;;;;;19.40;5.10;;;10.20;99.90;;;;;;4233082;28;20108;-85
2023/01/06 00:19:21;;;;;;;16.75;5.75;;;10.40;99.90;;;;;;4267597;27;20496;-87
2023/01/06 00:21:23;;;;;;;18.75;4.93;;;10.20;99.90;;;;;;4268112;27;20095;-86
2023/01/06 00:23:23;;;;;;;23.88;6.63;;;10.30;99.90;;;;;;4249777;27;20448;-85
2023/01/06 00:25:25;;;;;;;24.27;6.22;;;10.40;99.90;;;;;;4267834;27;20122;-85
2023/01/06 00:27:26;;;;;;;27.23;4.80;;;10.30;99.90;;;;;;4268227;27;20103;-85
2023/01/06 00:29:27;;;;;;;25.10;4.35;;;10.60;99.90;;;;;;4267676;27;20038;-86
2023/01/06 00:31:29;;;;;;;24.35;5.35;;;10.40;99.90;;;;;;4249526;27;20055;-86
2023/01/06 00:33:31;;;;;;;18.58;4.75;;;10.60;99.90;;;;;;4249542;27;20039;-87
2023/01/06 00:35:31;;;;;;;21.52;4.35;;;10.40;99.90;;;;;;4249719;27;20058;-85
2023/01/06 00:37:32;;;;;;;33.35;5.20;;;11.60;99.90;;;;;;4267943;27;20046;-85
2023/01/06 00:39:33;;;;;;;18.17;4.13;;;11.10;99.90;;;;;;4267586;27;20418;-86
2023/01/06 00:43:53;;;;;;;23.35;5.32;;;10.50;99.90;;;;;;4267515;27;20050;-86
2023/01/06 00:45:54;;;;;;;19.85;4.00;;;10.30;99.90;;;;;;4267732;27;20046;-86
2023/01/06 00:47:55;;;;;;;26.08;4.88;;;10.40;99.90;;;;;;4267602;27;20479;-87
2023/01/06 00:49:56;;;;;;;15.90;3.75;;;10.50;99.90;;;;;;4267727;27;20118;-86
2023/01/06 00:51:57;;;;;;;18.83;3.60;;;10.60;99.90;;;;;;4267492;27;20073;-86
2023/01/06 00:54:00;;;;;;;22.67;4.15;;;10.60;99.90;;;;;;4232525;28;20047;-86
2023/01/06 00:56:01;;;;;;;16.65;4.25;;;10.40;99.90;;;;;;4267580;27;20099;-86
2023/01/06 00:58:02;;;;;;;21.40;4.57;;;10.40;99.90;;;;;;4232403;28;20043;-86
2023/01/06 01:00:04;;;;;;;17.85;4.45;;;10.40;99.90;;;;;;4248373;27;20047;-87
2023/01/06 01:02:05;;;;;;;18.23;3.80;;;10.60;99.90;;;;;;4250780;27;20047;-86
2023/01/06 01:04:07;;;;;;;21.80;4.32;;;10.60;99.90;;;;;;4250409;27;20035;-86
2023/01/06 01:06:09;;;;;;;22.60;4.47;;;10.80;99.90;;;;;;4232103;28;20052;-86
2023/01/06 01:08:09;;;;;;;20.30;3.63;;;10.60;99.90;;;;;;4232419;28;20048;-87
2023/01/06 01:10:10;;;;;;;16.65;3.63;;;10.40;99.90;;;;;;4249848;27;20050;-86
2023/01/06 01:12:11;;;;;;;19.98;4.75;;;10.60;99.90;;;;;;4214910;28;20140;-87
2023/01/06 01:14:15;;;;;;;18.30;5.65;;;10.60;99.90;;;;;;4250038;27;20177;-86
2023/01/06 01:16:16;;;;;;;18.50;4.50;;;10.60;99.90;;;;;;4262036;27;20103;-86
2023/01/06 01:18:17;;;;;;;14.05;3.22;;;10.50;99.90;;;;;;4249516;27;20039;-85
2023/01/06 01:20:19;;;;;;;19.05;4.25;;;10.50;99.90;;;;;;4265561;27;20095;-86
2023/01/06 01:22:22;;;;;;;10.68;3.42;;;11.20;99.90;;;;;;4258417;27;20307;-86
2023/01/06 01:24:23;;;;;;;14.90;4.45;;;10.60;99.90;;;;;;4256372;27;20501;-86
2023/01/06 01:26:23;;;;;;;8.10;2.70;;;10.40;99.90;;;;;;4248171;27;20043;-85
2023/01/06 01:28:24;;;;;;;10.90;2.90;;;10.60;99.90;;;;;;4231369;28;20040;-85
2023/01/06 01:30:25;;;;;;;9.57;3.30;;;11.10;99.90;;;;;;4226823;28;20046;-86
2023/01/06 01:32:25;;;;;;;11.88;3.45;;;10.80;99.90;;;;;;4230976;28;20048;-86
2023/01/06 01:34:26;;;;;;;21.13;3.88;;;10.50;99.90;;;;;;4266300;27;20371;-85
2023/01/06 01:36:27;;;;;;;14.95;3.53;;;10.70;99.90;;;;;;4248272;27;20576;-85
2023/01/06 01:38:28;;;;;;;16.00;2.90;;;10.70;99.90;;;;;;4266771;27;20130;-85
2023/01/06 01:40:28;;;;;;;21.15;2.78;;;10.60;99.90;;;;;;4248131;27;20126;-85
2023/01/06 01:42:29;;;;;;;9.05;2.10;;;10.40;99.90;;;;;;4247730;27;20083;-85
2023/01/06 01:44:57;;;;;;;11.38;2.40;;;11.50;99.90;;;;;;4266119;27;20090;-85
2023/01/06 01:46:58;;;;;;;11.02;2.20;;;10.40;99.90;;;;;;4243988;27;20112;-85
2023/01/06 01:49:09;;;;;;;11.10;2.25;;;10.50;99.90;;;;;;4230823;28;20521;-85
2023/01/06 01:51:14;;;;;;;10.50;3.15;;;10.50;99.90;;;;;;4231298;28;20055;-85
2023/01/06 01:53:22;;;;;;;12.60;2.08;;;10.40;99.90;;;;;;4248841;27;20035;-85
2023/01/06 01:55:25;;;;;;;9.30;2.35;;;10.50;99.90;;;;;;4231369;28;20047;-85
2023/01/06 01:57:37;;;;;;;13.05;2.42;;;10.40;99.90;;;;;;4231550;28;20055;-85
2023/01/06 01:59:40;;;;;;;6.95;2.00;;;10.40;99.90;;;;;;4230871;28;20059;-85
2023/01/06 02:01:41;;;;;;;10.65;2.95;;;10.50;99.90;;;;;;4231431;28;20475;-85
2023/01/06 02:03:42;;;;;;;7.25;2.25;;;10.50;99.90;;;;;;4244669;27;20096;-85
2023/01/06 02:05:49;;;;;;;6.65;2.00;;;10.50;99.90;;;;;;4266835;27;20502;-85
2023/01/06 02:07:52;;;;;;;6.65;2.28;;;10.50;99.90;;;;;;4231434;28;20088;-85
2023/01/06 02:10:07;;;;;;;9.98;2.10;;;10.50;99.90;;;;;;4248453;27;20107;-85
2023/01/06 02:12:08;;;;;;;15.73;2.05;;;10.50;99.90;;;;;;4231004;28;20052;-86
2023/01/06 02:14:15;;;;;;;6.35;1.75;;;10.50;99.90;;;;;;4231249;28;20043;-86
2023/01/06 02:16:45;;;;;;;10.70;2.55;;;10.50;99.90;;;;;;4266554;27;20043;-86
2023/01/06 02:18:58;;;;;;;6.20;1.95;;;10.50;99.90;;;;;;4217927;28;20051;-85
2023/01/06 02:21:23;;;;;;;11.23;2.10;;;10.50;99.90;;;;;;4248136;27;20074;-85
2023/01/06 02:23:41;;;;;;;7.97;2.08;;;10.50;99.90;;;;;;4248262;27;20142;-84
2023/01/06 02:26:26;;;;;;;9.00;2.30;;;10.50;99.90;;;;;;4231135;28;20130;-85
2023/01/06 02:28:44;;;;;;;5.78;2.25;;;10.40;99.90;;;;;;4231811;28;20104;-85
2023/01/06 02:31:15;;;;;;;5.35;2.13;;;10.50;99.90;;;;;;4214472;28;20052;-85
2023/01/06 02:33:27;;;;;;;7.10;2.85;;;10.50;99.90;;;;;;4230173;28;20437;-85
2023/01/06 02:36:01;;;;;;;5.78;2.15;;;10.50;99.90;;;;;;4230831;28;20055;-85
2023/01/06 02:38:36;;;;;;;10.15;2.80;;;10.50;99.90;;;;;;4242876;27;20060;-86
2023/01/06 02:40:49;;;;;;;7.93;2.30;;;10.50;99.90;;;;;;4231779;27;20138;-85
2023/01/06 02:43:04;;;;;;;5.38;2.20;;;10.50;99.90;;;;;;4263729;27;20143;-85
2023/01/06 02:45:11;;;;;;;5.63;2.08;;;10.50;99.90;;;;;;4281802;27;20039;-85
2023/01/06 02:47:28;;;;;;;4.20;2.38;;;10.50;99.90;;;;;;4263026;27;20047;-85
2023/01/06 02:49:41;;;;;;;9.88;2.45;;;10.50;99.90;;;;;;4259082;27;20051;-85
2023/01/06 02:51:57;;;;;;;8.50;1.92;;;10.50;99.90;;;;;;4261961;27;20059;-86
2023/01/06 02:54:12;;;;;;;10.07;2.90;;;10.50;99.90;;;;;;4264209;27;20051;-85
2023/01/06 02:56:12;;;;;;;8.52;1.88;;;10.50;99.90;;;;;;4262342;27;20096;-86
2023/01/06 02:58:22;;;;;;;9.57;3.15;;;10.50;99.90;;;;;;4254162;27;20047;-85
2023/01/06 03:01:01;;;;;;;7.22;1.77;;;10.40;99.90;;;;;;4248628;27;20096;-85
2023/01/06 03:03:08;;;;;;;8.52;2.53;;;10.40;99.90;;;;;;4192613;27;20051;-85
2023/01/06 03:05:13;;;;;;;5.47;2.30;;;10.50;99.90;;;;;;4248003;27;20043;-85
2023/01/06 03:07:16;;;;;;;10.00;2.35;;;10.40;99.90;;;;;;4247700;27;20055;-86
2023/01/06 03:09:21;;;;;;;5.43;1.92;;;10.50;99.90;;;;;;4247214;27;20055;-86
2023/01/06 03:11:25;;;;;;;7.80;2.40;;;10.40;99.90;;;;;;4247639;27;20051;-85
2023/01/06 03:13:45;;;;;;;9.60;2.05;;;10.50;99.90;;;;;;4265468;27;20050;-85
2023/01/06 03:15:46;;;;;;;7.65;1.95;;;10.40;99.90;;;;;;4246548;27;20050;-85
2023/01/06 03:17:47;;;;;;;8.25;3.58;;;10.40;99.90;;;;;;4247282;27;20064;-85
2023/01/06 03:19:48;;;;;;;7.22;2.45;;;10.40;99.90;;;;;;4247535;27;20520;-85
2023/01/06 03:21:50;;;;;;;3.05;1.95;;;10.40;99.90;;;;;;4265563;27;20043;-86
2023/01/06 03:23:52;;;;;;;6.68;2.20;;;10.40;99.90;;;;;;4265106;27;20047;-86
2023/01/06 03:25:54;;;;;;;7.28;2.42;;;10.40;99.90;;;;;;4230130;28;20058;-86
2023/01/06 03:27:55;;;;;;;3.72;2.50;;;10.40;99.90;;;;;;4247410;27;20511;-85
2023/01/06 03:29:56;;;;;;;5.55;2.28;;;10.40;99.90;;;;;;4246924;27;20056;-85
2023/01/06 03:32:23;;;;;;;4.80;1.88;;;10.40;99.90;;;;;;4265145;27;20557;-86
2023/01/06 03:34:42;;;;;;;7.25;2.05;;;10.40;99.90;;;;;;4265146;27;20058;-86
2023/01/06 03:37:07;;;;;;;7.10;2.33;;;10.30;99.90;;;;;;4246633;27;20054;-85
2023/01/06 03:39:16;;;;;;;4.55;1.80;;;10.40;99.90;;;;;;4246601;27;20170;-86
2023/01/06 03:44:14;;;;;;;3.30;2.10;;;10.40;99.90;;;;;;4242694;27;20038;-86
2023/01/06 03:46:21;;;;;;;6.80;2.20;;;10.40;99.90;;;;;;4245734;27;20118;-86
2023/01/06 03:48:22;;;;;;;8.13;2.60;;;10.30;99.90;;;;;;4246352;27;20054;-86
2023/01/06 03:50:37;;;;;;;6.18;2.10;;;10.30;99.90;;;;;;4246829;27;20463;-85
2023/01/06 03:52:58;;;;;;;5.60;1.80;;;10.30;99.90;;;;;;4246278;27;20051;-86
2023/01/06 03:55:22;;;;;;;10.15;2.70;;;10.80;99.90;;;;;;4264421;27;20402;-86
2023/01/06 03:57:24;;;;;;;5.72;1.98;;;10.30;99.90;;;;;;4246267;28;20491;-86
2023/01/06 03:59:29;;;;;;;3.67;1.65;;;10.30;99.90;;;;;;4245567;28;20122;-85
2023/01/06 04:01:30;;;;;;;7.55;2.35;;;10.30;99.90;;;;;;4246296;28;20093;-85
2023/01/06 04:03:32;;;;;;;4.03;1.98;;;10.30;99.90;;;;;;4246111;28;20079;-85
2023/01/06 04:05:33;;;;;;;7.78;2.60;;;10.30;99.90;;;;;;4264549;27;20062;-86
2023/01/06 04:07:33;;;;;;;7.53;2.35;;;10.30;99.90;;;;;;4244068;28;20554;-86
2023/01/06 04:09:34;;;;;;;7.72;2.97;;;10.30;99.90;;;;;;4261146;27;20077;-85
2023/01/06 04:13:56;;;;;;;5.75;2.60;;;10.30;99.90;;;;;;4264632;27;20553;-85
2023/01/06 04:15:56;;;;;;;5.53;3.22;;;10.30;99.90;;;;;;4246337;28;20089;-85
2023/01/06 04:17:58;;;;;;;4.65;2.97;;;10.30;99.90;;;;;;4264236;27;20413;-85
2023/01/06 04:19:59;;;;;;;7.20;3.03;;;10.30;99.90;;;;;;4245864;28;20051;-85
2023/01/06 04:22:00;;;;;;;7.22;3.03;;;10.30;99.90;;;;;;4264456;27;20050;-85
2023/01/06 04:24:01;;;;;;;4.22;2.47;;;10.30;99.90;;;;;;4246073;28;20085;-86
2023/01/06 04:26:02;;;;;;;7.47;3.13;;;10.30;99.90;;;;;;4246156;28;20139;-85
2023/01/06 04:28:03;;;;;;;6.75;2.70;;;10.30;99.90;;;;;;4264780;27;20486;-85
2023/01/06 04:30:05;;;;;;;5.25;2.95;;;10.30;99.90;;;;;;4264630;27;20046;-85
2023/01/06 04:32:06;;;;;;;4.82;2.78;;;10.30;99.90;;;;;;4245882;28;20051;-86
2023/01/06 04:34:07;;;;;;;4.60;2.70;;;10.30;99.90;;;;;;4246068;28;20439;-85
2023/01/06 04:36:08;;;;;;;7.15;2.35;;;10.30;99.90;;;;;;4245906;28;20055;-86
2023/01/06 04:38:09;;;;;;;8.38;2.72;;;10.30;99.90;;;;;;4245837;28;20086;-85
2023/01/06 04:40:10;;;;;;;7.85;3.35;;;10.30;99.90;;;;;;4245935;28;20035;-85
2023/01/06 04:42:11;;;;;;;6.50;2.55;;;10.30;99.90;;;;;;4245364;28;20080;-85
2023/01/06 04:44:13;;;;;;;6.47;2.35;;;10.30;99.90;;;;;;4246301;28;20039;-85
2023/01/06 04:46:14;;;;;;;6.22;2.50;;;10.40;99.90;;;;;;4245492;28;20403;-85
2023/01/06 04:48:15;;;;;;;3.97;2.35;;;10.30;99.90;;;;;;4263604;27;20486;-85
2023/01/06 04:50:16;;;;;;;3.65;2.50;;;10.30;99.90;;;;;;4245795;28;20575;-85
2023/01/06 04:52:17;;;;;;;6.97;1.80;;;10.40;99.90;;;;;;4264117;27;20117;-86
2023/01/06 04:54:17;;;;;;;3.42;1.50;;;10.40;99.90;;;;;;4228748;28;20102;-86
2023/01/06 04:56:18;;;;;;;3.33;2.10;;;10.40;99.90;;;;;;4265690;27;20049;-85
2023/01/06 04:58:19;;;;;;;9.88;2.58;;;10.30;99.90;;;;;;4266791;27;20126;-85
2023/01/06 05:00:21;;;;;;;6.63;2.10;;;10.30;99.90;;;;;;4266563;27;20058;-85
2023/01/06 05:02:21;;;;;;;3.60;2.05;;;10.30;99.90;;;;;;4267066;27;20117;-85
2023/01/06 05:04:22;;;;;;;5.30;2.50;;;10.30;99.90;;;;;;4267196;27;20051;-86
2023/01/06 05:06:23;;;;;;;4.45;1.60;;;10.30;99.90;;;;;;4267335;27;20087;-86
2023/01/06 05:08:23;;;;;;;4.47;1.95;;;10.40;99.90;;;;;;4248389;27;20047;-86
2023/01/06 05:10:25;;;;;;;3.85;1.80;;;10.30;99.90;;;;;;4267062;27;20122;-86
2023/01/06 05:12:27;;;;;;;4.15;2.00;;;10.30;99.90;;;;;;4266813;27;20097;-89
2023/01/06 05:14:27;;;;;;;3.60;1.67;;;10.30;99.90;;;;;;4248553;27;20058;-85
2023/01/06 05:16:32;;;;;;;5.00;1.98;;;10.30;99.90;;;;;;4243894;27;20515;-85
2023/01/06 05:18:34;;;;;;;4.53;1.80;;;10.40;99.90;;;;;;4266994;27;20457;-85
2023/01/06 05:20:34;;;;;;;5.13;1.85;;;10.40;99.90;;;;;;4247553;27;20039;-84
2023/01/06 05:22:36;;;;;;;2.83;1.80;;;10.40;99.90;;;;;;4254127;27;20095;-85
2023/01/06 05:24:37;;;;;;;4.55;1.90;;;10.40;99.90;;;;;;4263532;27;20474;-85
2023/01/06 05:26:38;;;;;;;3.10;1.48;;;10.40;99.90;;;;;;4248137;27;20054;-84
2023/01/06 05:28:38;;;;;;;5.13;1.55;;;10.50;99.90;;;;;;4243504;27;20384;-84
2023/01/06 05:30:39;;;;;;;4.47;1.60;;;10.40;99.90;;;;;;4250321;27;20043;-83
2023/01/06 05:32:40;;;;;;;12.13;2.78;;;10.60;99.90;;;;;;4259082;27;20043;-83
2023/01/06 05:34:40;;;;;;;4.10;1.38;;;10.50;99.90;;;;;;4266753;27;20474;-83
2023/01/06 05:36:42;;;;;;;6.05;1.77;;;10.50;99.90;;;;;;4265674;27;20379;-84
2023/01/06 05:38:43;;;;;;;5.38;1.73;;;10.50;99.90;;;;;;4248228;27;20050;-84
2023/01/06 05:40:44;;;;;;;6.00;1.70;;;10.60;99.90;;;;;;4231357;28;20136;-84
2023/01/06 05:42:46;;;;;;;5.10;1.80;;;10.50;99.90;;;;;;4266748;27;20047;-84
2023/01/06 05:44:46;;;;;;;4.00;1.88;;;10.50;99.90;;;;;;4266248;27;20050;-83
2023/01/06 05:46:48;;;;;;;4.15;1.70;;;10.50;99.90;;;;;;4248344;27;20104;-84
2023/01/06 05:48:49;;;;;;;4.53;2.28;;;10.50;99.90;;;;;;4266826;27;20035;-84
2023/01/06 05:50:50;;;;;;;4.20;2.05;;;10.50;99.90;;;;;;4266253;27;20110;-84
2023/01/06 05:52:52;;;;;;;2.55;2.05;;;10.50;99.90;;;;;;4267069;27;20394;-84
2023/01/06 05:54:53;;;;;;;6.15;3.03;;;10.50;99.90;;;;;;4232312;27;20222;-85
2023/01/06 05:56:54;;;;;;;6.70;2.63;;;10.50;99.90;;;;;;4249516;27;20376;-85
2023/01/06 05:58:55;;;;;;;8.13;3.67;;;10.40;99.90;;;;;;4235420;28;20063;-85
2023/01/06 06:00:55;;;;;;;5.45;3.25;;;10.20;99.90;;;;;;4256753;27;20049;-85
2023/01/06 06:02:56;;;;;;;6.07;3.58;;;10.20;99.90;;;;;;4267085;27;20047;-85
2023/01/06 06:04:57;;;;;;;7.70;3.75;;;10.10;99.90;;;;;;4248193;27;20058;-85
2023/01/06 06:06:58;;;;;;;7.10;3.90;;;10.00;99.90;;;;;;4246974;27;20086;-85
2023/01/06 06:09:00;;;;;;;6.60;3.92;;;10.00;99.90;;;;;;4247950;27;20551;-85
2023/01/06 06:11:09;;;;;;;5.93;4.22;;;9.90;99.90;;;;;;4267002;27;20054;-86
2023/01/06 06:13:11;;;;;;;8.15;4.10;;;9.90;99.90;;;;;;4232364;28;20054;-86
2023/01/06 06:15:13;;;;;;;11.13;4.65;;;10.00;99.90;;;;;;4228066;28;20039;-87
2023/01/06 06:17:13;;;;;;;8.65;4.32;;;9.80;99.90;;;;;;4231515;28;20051;-86
2023/01/06 06:19:14;;;;;;;7.20;4.13;;;9.80;99.90;;;;;;4214114;28;20542;-87
2023/01/06 06:21:18;;;;;;;6.28;4.53;;;9.80;99.90;;;;;;4215959;28;20180;-86
2023/01/06 06:23:19;;;;;;;6.32;3.83;;;9.40;99.90;;;;;;4232758;28;20048;-87
2023/01/06 06:25:20;;;;;;;8.60;5.07;;;9.80;99.90;;;;;;4225232;28;20127;-86
2023/01/06 06:27:21;;;;;;;5.50;4.28;;;9.80;99.90;;;;;;4227565;28;20040;-86
2023/01/06 06:29:21;;;;;;;7.55;4.47;;;9.80;99.90;;;;;;4232289;28;20100;-87
2023/01/06 06:31:24;;;;;;;9.88;4.20;;;9.80;99.90;;;;;;4230513;28;20093;-87
2023/01/06 06:33:25;;;;;;;11.07;4.40;;;9.80;99.90;;;;;;4214451;28;20055;-86
2023/01/06 06:35:27;;;;;;;6.35;4.03;;;9.80;99.90;;;;;;4216824;28;20032;-86
2023/01/06 06:37:27;;;;;;;9.77;3.85;;;9.70;99.90;;;;;;4214813;28;20052;-86
2023/01/06 06:39:29;;;;;;;6.15;3.42;;;9.80;99.90;;;;;;4214899;28;20117;-87
2023/01/06 06:41:30;;;;;;;10.10;4.13;;;9.80;99.90;;;;;;4215201;28;20052;-87
2023/01/06 06:43:31;;;;;;;6.78;4.07;;;9.80;99.90;;;;;;4214135;28;20494;-87
2023/01/06 06:45:32;;;;;;;5.05;3.47;;;9.80;99.90;;;;;;4215268;28;20396;-88
2023/01/06 06:47:33;;;;;;;6.22;3.42;;;9.80;99.90;;;;;;4215901;28;20040;-87
2023/01/06 06:49:34;;;;;;;6.35;3.42;;;9.80;99.90;;;;;;4215470;28;20040;-86
2023/01/06 06:51:34;;;;;;;9.60;3.67;;;9.80;99.90;;;;;;4214332;28;20531;-87
2023/01/06 06:53:37;;;;;;;7.13;3.47;;;9.80;99.90;;;;;;4216143;28;20055;-87
2023/01/06 06:55:39;;;;;;;6.18;3.78;;;9.80;99.90;;;;;;4216094;28;20040;-86
2023/01/06 06:57:40;;;;;;;4.95;3.40;;;9.80;99.90;;;;;;4214136;28;20055;-86
2023/01/06 06:59:40;;;;;;;4.65;3.35;;;9.70;99.90;;;;;;4214490;28;20040;-86
2023/01/06 07:01:41;;;;;;;5.60;2.95;;;9.70;99.90;;;;;;4215097;28;20093;-85
2023/01/06 07:03:42;;;;;;;6.50;3.15;;;9.70;99.90;;;;;;4215363;28;20051;-85
2023/01/06 07:05:44;;;;;;;6.65;3.40;;;9.70;99.90;;;;;;4216254;28;20071;-86
2023/01/06 07:07:45;;;;;;;4.38;3.22;;;9.70;99.90;;;;;;4215005;28;20109;-86
2023/01/06 07:09:47;;;;;;;4.32;3.10;;;9.60;99.90;;;;;;4215256;28;20048;-86
2023/01/06 07:11:47;;;;;;;6.68;2.83;;;9.60;99.90;;;;;;4203490;28;20082;-87
2023/01/06 07:13:48;;;;;;;4.50;3.08;;;9.60;99.90;;;;;;4232233;28;20066;-85
2023/01/06 07:15:49;;;;;;;5.22;2.92;;;10.20;99.90;;;;;;4214473;28;20052;-86
2023/01/06 07:17:50;;;;;;;4.65;2.25;;;9.70;99.90;;;;;;4247663;27;20049;-85
2023/01/06 07:19:51;;;;;;;5.05;2.60;;;9.70;99.90;;;;;;4248261;27;20499;-87
2023/01/06 07:21:52;;;;;;;6.40;2.83;;;9.60;99.90;;;;;;4249409;27;20118;-87
2023/01/06 07:23:54;;;;;;;3.17;1.73;;;10.20;99.90;;;;;;4247051;27;20051;-86
2023/01/06 07:25:57;;;;;;;3.15;2.00;;;9.70;99.90;;;;;;4242157;27;20096;-87
2023/01/06 07:28:04;;;;;;;2.47;1.77;;;9.70;99.90;;;;;;4242065;27;20039;-86
2023/01/06 07:30:05;;;;;;;2.60;1.88;;;9.70;99.90;;;;;;4239041;27;20062;-86
2023/01/06 07:32:06;;;;;;;3.30;1.90;;;9.60;99.90;;;;;;4237143;27;20053;-86
2023/01/06 07:34:07;;;;;;;3.63;2.08;;;9.50;99.90;;;;;;4239525;27;20047;-87
2023/01/06 07:36:08;;;;;;;5.53;1.83;;;9.70;99.90;;;;;;4246586;27;20491;-86
2023/01/06 07:38:09;;;;;;;3.50;1.95;;;9.70;99.90;;;;;;4243837;27;20032;-88
2023/01/06 07:40:10;;;;;;;1.70;1.27;;;9.80;99.90;;;;;;4241520;27;20097;-86
2023/01/06 07:42:11;;;;;;;2.17;1.40;;;9.80;99.90;;;;;;4230899;28;20051;-87
2023/01/06 07:44:13;;;;;;;4.38;2.17;;;9.70;99.90;;;;;;4236439;27;20038;-85
2023/01/06 07:46:13;;;;;;;4.60;1.52;;;9.80;99.90;;;;;;4249570;27;20399;-88
2023/01/06 07:48:15;;;;;;;4.65;1.38;;;9.80;99.90;;;;;;4247810;27;20078;-88
2023/01/06 07:50:17;;;;;;;5.90;1.38;;;9.80;99.90;;;;;;4247688;27;20590;-87
2023/01/06 07:52:17;;;;;;;3.00;1.27;;;9.70;99.90;;;;;;4249276;27;20043;-88
2023/01/06 07:54:18;;;;;;;5.90;1.30;;;9.70;99.90;;;;;;4231280;28;20120;-88
2023/01/06 07:56:20;;;;;;;5.80;1.48;;;9.70;99.90;;;;;;4242227;27;20039;-87
2023/01/06 07:58:23;;;;;;;2.50;1.02;;;9.60;99.90;;;;;;4229854;28;20051;-87
2023/01/06 08:00:24;;;;;;;2.80;1.35;;;9.60;99.90;;;;;;4231264;28;20055;-87
2023/01/06 08:02:24;;;;;;;3.15;0.80;;;9.50;99.90;;;;;;4231561;28;20530;-87
2023/01/06 08:04:25;;;;;;;3.13;0.80;;;9.60;99.90;;;;;;4231266;28;20075;-87
2023/01/06 08:06:27;;;;;;;7.43;1.00;;;9.40;99.90;;;;;;4230366;28;20047;-87
2023/01/06 08:08:27;;;;;;;3.03;0.57;;;9.40;99.90;;;;;;4230488;28;20047;-87
2023/01/06 08:10:29;;;;;;;2.28;0.70;;;9.80;99.90;;;;;;4231240;28;20181;-86
2023/01/06 08:12:30;;;;;;;8.00;0.73;;;9.60;99.90;;;;;;4229989;28;20052;-87
2023/01/06 08:14:32;;;;;;;2.72;0.80;;;9.20;99.90;;;;;;4213483;28;20051;-87
2023/01/06 08:16:36;;;;;;;3.25;0.50;;;9.10;99.90;;;;;;4236388;28;20035;-88
2023/01/06 08:18:38;;;;;;;2.83;0.50;;;9.00;99.90;;;;;;4248374;27;20379;-87
2023/01/06 08:20:39;;;;;;;2.85;0.95;;;9.00;99.90;;;;;;4249137;27;20054;-89
2023/01/06 08:22:41;;;;;;;1.92;0.63;;;8.90;99.90;;;;;;4247834;28;20042;-84
2023/01/06 08:24:41;;;;;;;3.63;0.43;;;8.80;99.90;;;;;;4247975;27;20043;-86
2023/01/06 08:26:42;;;;;;;2.65;0.40;;;8.90;99.90;;;;;;4246966;28;20047;-86
2023/01/06 08:28:44;;;;;;;1.52;0.20;;;8.70;99.90;;;;;;4248253;28;20046;-85
2023/01/06 08:30:45;;;;;;;3.33;0.50;;;8.70;99.90;;;;;;4246763;27;20535;-86
2023/01/06 08:32:47;;;;;;;2.22;0.47;;;8.70;99.90;;;;;;4233546;28;20119;-85
2023/01/06 08:34:48;;;;;;;2.05;0.20;;;9.00;99.90;;;;;;4236587;28;20043;-85
2023/01/06 08:36:48;;;;;;;1.25;0.40;;;8.20;99.90;;;;;;4244351;28;20103;-84
2023/01/06 08:38:49;;;;;;;1.75;0.60;;;8.60;99.90;;;;;;4263696;27;20089;-85
2023/01/06 08:40:54;;;;;;;1.48;0.40;;;8.70;99.90;;;;;;4262937;27;20050;-84
2023/01/06 08:42:55;;;;;;;2.75;0.50;;;8.80;99.90;;;;;;4261301;27;20438;-85
2023/01/06 08:44:55;;;;;;;3.20;0.60;;;8.80;99.90;;;;;;4261966;27;20039;-87
2023/01/06 08:46:56;;;;;;;4.97;0.32;;;8.90;99.90;;;;;;4263976;27;20047;-85
2023/01/06 08:48:57;;;;;;;3.42;0.28;;;9.00;99.90;;;;;;4262068;27;20055;-85
2023/01/06 08:51:06;;;;;;;2.83;0.32;;;9.00;99.90;;;;;;4248240;28;20027;-85
2023/01/06 08:53:09;;;;;;;1.20;0.20;;;9.20;99.90;;;;;;4264915;27;20047;-86
2023/01/06 08:55:11;;;;;;;3.45;0.60;;;9.30;99.90;;;;;;4254943;27;20046;-86
2023/01/06 08:57:14;;;;;;;3.80;0.30;;;10.50;99.90;;;;;;4233914;28;20054;-86
2023/01/06 08:59:16;;;;;;;7.78;0.50;;;8.30;99.90;;;;;;4251478;27;20046;-85
2023/01/06 09:01:21;;;;;;;4.80;0.63;;;9.30;99.90;;;;;;4251460;27;20119;-85
2023/01/06 09:03:22;;;;;;;0.75;0.30;;;9.70;99.90;;;;;;4250917;27;20436;-85
2023/01/06 09:05:23;;;;;;;3.78;1.00;;;10.10;99.90;;;;;;4250685;27;20442;-85
2023/01/06 09:07:24;;;;;;;4.70;1.17;;;10.30;99.90;;;;;;4252574;27;20081;-88
2023/01/06 09:09:30;;;;;;;3.60;0.50;;;10.70;99.90;;;;;;4241257;28;20052;-86
2023/01/06 09:11:31;;;;;;;3.20;0.40;;;10.70;99.90;;;;;;4258948;27;20057;-88
2023/01/06 09:13:34;;;;;;;8.82;1.00;;;11.10;99.90;;;;;;4252999;27;20039;-88
2023/01/06 09:15:39;;;;;;;4.75;0.70;;;10.80;99.90;;;;;;4272841;27;20094;-89
2023/01/06 09:17:41;;;;;;;5.95;0.80;;;11.00;99.90;;;;;;4256548;27;20042;-88
2023/01/06 09:19:42;;;;;;;5.60;0.77;;;11.20;99.90;;;;;;4272882;27;20042;-89
2023/01/06 09:21:44;;;;;;;5.20;0.63;;;11.60;99.90;;;;;;4251877;27;20042;-88
2023/01/06 09:23:47;;;;;;;2.15;0.63;;;12.20;99.90;;;;;;4270233;27;20084;-87
2023/01/06 09:25:48;;;;;;;4.55;0.70;;;13.70;99.90;;;;;;4270414;27;20046;-88
2023/01/06 09:27:48;;;;;;;2.45;0.60;;;12.60;99.90;;;;;;4254883;27;20111;-88
2023/01/06 09:29:51;;;;;;;7.07;0.80;;;11.70;99.90;;;;;;4241904;28;20093;-89
2023/01/06 09:31:52;;;;;;;4.72;0.50;;;13.30;99.90;;;;;;4250800;28;20091;-88
2023/01/06 09:33:53;;;;;;;5.78;0.60;;;13.10;99.90;;;;;;4268114;27;20030;-88
2023/01/06 09:35:54;;;;;;;4.88;1.27;;;13.60;99.90;;;;;;4267243;27;20055;-86
2023/01/06 09:37:55;;;;;;;5.82;0.73;;;13.90;99.90;;;;;;4248133;28;20042;-85
2023/01/06 09:39:56;;;;;;;7.60;0.70;;;14.00;99.90;;;;;;4266617;27;20043;-85
2023/01/06 09:42:43;;;;;;;7.68;0.88;;;13.80;99.90;;;;;;4283310;27;20050;-86
2023/01/06 09:44:56;;;;;;;6.95;1.33;;;14.00;99.90;;;;;;4254766;27;20112;-86
2023/01/06 09:47:00;;;;;;;6.55;0.80;;;13.90;99.90;;;;;;4268642;27;20512;-86
2023/01/06 09:49:23;;;;;;;7.05;0.77;;;14.00;99.90;;;;;;4267958;27;20127;-85
2023/01/06 09:51:27;;;;;;;4.72;1.08;;;13.80;99.90;;;;;;4269692;27;20053;-85
2023/01/06 09:53:50;;;;;;;6.13;0.82;;;13.60;99.90;;;;;;4250345;27;20054;-86
2023/01/06 09:55:59;;;;;;;7.93;0.80;;;13.20;99.90;;;;;;4232989;28;20043;-86
2023/01/06 09:58:04;;;;;;;;;;;12.80;99.90;;;;;;4249520;27;20479;-86
2023/01/06 10:00:13;;;;;;;6.72;1.00;;;12.10;99.90;;;;;;4267545;27;19919;-85
2023/01/06 10:02:28;;;;;;;6.38;0.90;;;11.60;99.90;;;;;;4267675;27;20039;-86
2023/01/06 10:04:30;;;;;;;6.60;1.00;;;11.40;99.90;;;;;;4268293;27;20466;-86
2023/01/06 10:06:40;;;;;;;4.53;0.50;;;11.10;99.90;;;;;;4249676;27;20114;-86
2023/01/06 10:09:07;;;;;;;6.40;0.80;;;11.00;99.90;;;;;;4232026;28;20048;-85
2023/01/06 10:11:23;;;;;;;6.43;0.80;;;10.60;99.90;;;;;;4248295;27;20035;-85
2023/01/06 10:14:00;;;;;;;5.60;1.17;;;10.40;99.90;;;;;;4248593;27;20043;-85
2023/01/06 10:16:11;;;;;;;6.20;1.20;;;10.20;99.90;;;;;;4267645;27;20061;-85
2023/01/06 10:18:53;;;;;;;2.85;1.08;;;10.10;99.90;;;;;;4249036;27;20058;-86
2023/01/06 10:21:07;;;;;;;9.52;1.27;;;9.90;99.90;;;;;;4164452;28;20459;-86
2023/01/06 10:23:31;;;;;;;10.02;0.77;;;9.90;99.90;;;;;;4181401;28;20412;-86
2023/01/06 10:25:45;;;;;;;6.93;0.70;;;9.90;99.90;;;;;;4216159;27;20171;-86
2023/01/06 10:28:20;;;;;;;9.75;1.20;;;10.10;99.90;;;;;;4248499;27;20549;-86
2023/01/06 10:30:49;;;;;;;7.93;0.80;;;10.40;99.90;;;;;;4249243;27;20047;-86
2023/01/06 10:32:50;;;;;;;7.30;1.42;;;10.70;99.90;;;;;;4264677;27;20090;-86
2023/01/06 10:34:51;;;;;;;8.20;1.95;;;10.70;99.90;;;;;;4252485;27;20068;-86
2023/01/06 10:37:08;;;;;;;7.80;1.13;;;10.90;99.90;;;;;;4267809;27;20041;-85
2023/01/06 10:39:23;;;;;;;6.78;1.13;;;10.70;99.90;;;;;;4248588;27;20431;-87
2023/01/06 10:41:36;;;;;;;7.50;1.27;;;10.60;99.90;;;;;;4248685;27;20122;-86
2023/01/06 10:43:37;;;;;;;6.28;1.30;;;10.80;99.90;;;;;;4248527;27;20086;-84
2023/01/06 10:45:46;;;;;;;7.75;0.77;;;11.00;99.90;;;;;;4266473;27;20080;-84
2023/01/06 10:47:47;;;;;;;;;;;11.00;99.90;;;;;;4267648;27;20133;-86
2023/01/06 10:49:48;;;;;;;4.53;0.80;;;11.00;99.90;;;;;;4248566;27;19931;-86
2023/01/06 10:51:53;;;;;;;8.70;0.80;;;11.10;99.90;;;;;;4249477;27;20104;-87
2023/01/06 10:54:17;;;;;;;4.93;0.70;;;11.20;99.90;;;;;;4265413;27;20042;-86
2023/01/06 10:56:18;;;;;;;5.03;0.63;;;11.20;99.90;;;;;;4249259;27;20043;-86
2023/01/06 10:58:21;;;;;;;7.25;1.02;;;11.40;99.90;;;;;;4248292;27;20090;-87